Time;durP1;ratioP1;P1;durP2;ratioP2;P2;SDS_P1;SDS_P2;PMS_P1;PMS_P2;Temp;Humidity;BMP_temperature;BMP_pressure;BME280_temperature;BME280_humidity;BME280_pressure;Samples;Min_cycle;Max_cycle;Signal;HPM_P1;HPM_P2
2021/10/19 00:01:02;;;;;;;7.50;6.00;;;8.00;99.90;;;;;;4981069;28;20189;-77
2021/10/19 00:03:28;;;;;;;7.60;6.07;;;8.00;99.90;;;;;;4997043;28;20192;-76
2021/10/19 00:05:54;;;;;;;8.07;5.60;;;8.00;99.90;;;;;;4982204;28;20203;-77
2021/10/19 00:08:20;;;;;;;6.83;5.20;;;8.00;99.90;;;;;;4981700;28;20283;-76
2021/10/19 00:10:45;;;;;;;6.53;5.33;;;8.00;99.90;;;;;;4996404;28;20180;-76
2021/10/19 00:13:11;;;;;;;8.13;5.90;;;8.10;99.90;;;;;;4981855;28;20267;-77
2021/10/19 00:15:37;;;;;;;7.27;6.07;;;8.10;99.90;;;;;;4981900;28;20657;-77
2021/10/19 00:18:03;;;;;;;6.70;6.00;;;8.10;99.90;;;;;;4981729;28;20211;-76
2021/10/19 00:20:28;;;;;;;7.30;5.63;;;8.20;99.90;;;;;;4982132;28;20188;-76
2021/10/19 00:22:54;;;;;;;10.27;6.37;;;8.20;99.90;;;;;;4980622;28;20837;-77
2021/10/19 00:25:19;;;;;;;8.20;5.97;;;8.20;99.90;;;;;;4981987;28;20939;-76
2021/10/19 00:27:46;;;;;;;7.90;5.80;;;8.20;99.90;;;;;;4980819;28;20179;-77
2021/10/19 00:30:13;;;;;;;8.50;5.87;;;8.20;99.90;;;;;;4981911;28;20590;-77
2021/10/19 00:32:40;;;;;;;7.00;6.23;;;8.20;99.90;;;;;;4981919;28;20180;-76
2021/10/19 00:35:06;;;;;;;6.43;5.60;;;8.20;99.90;;;;;;4981984;28;20203;-76
2021/10/19 00:37:32;;;;;;;8.07;6.07;;;8.30;99.90;;;;;;4981599;28;20266;-77
2021/10/19 00:39:57;;;;;;;7.23;5.83;;;8.20;99.90;;;;;;4981806;28;20689;-77
2021/10/19 00:42:23;;;;;;;6.93;5.83;;;8.20;99.90;;;;;;4982046;28;20180;-77
2021/10/19 00:44:50;;;;;;;8.83;5.87;;;8.30;99.90;;;;;;4981720;28;20318;-77
2021/10/19 00:47:19;;;;;;;8.37;6.00;;;8.30;99.90;;;;;;4981639;28;20366;-76
2021/10/19 00:49:49;;;;;;;7.07;5.97;;;8.30;99.90;;;;;;4980772;28;20271;-76
2021/10/19 00:52:17;;;;;;;7.70;5.67;;;8.40;99.90;;;;;;4981730;28;20180;-78
2021/10/19 00:54:43;;;;;;;6.60;5.43;;;8.60;99.90;;;;;;4981280;28;21015;-77
2021/10/19 00:57:10;;;;;;;6.70;5.40;;;8.50;99.90;;;;;;4981927;28;20683;-76
2021/10/19 00:59:41;;;;;;;6.63;5.43;;;8.50;99.90;;;;;;4981462;28;20686;-77
2021/10/19 01:02:07;;;;;;;6.77;5.60;;;8.50;99.90;;;;;;4996270;28;20180;-77
2021/10/19 01:04:32;;;;;;;6.63;5.70;;;8.50;99.90;;;;;;4981153;28;20192;-77
2021/10/19 01:06:58;;;;;;;6.70;5.77;;;8.50;99.90;;;;;;4981369;28;20204;-76
2021/10/19 01:09:23;;;;;;;8.00;6.20;;;8.50;99.90;;;;;;4981045;28;20199;-76
2021/10/19 01:11:49;;;;;;;8.23;6.40;;;8.50;99.90;;;;;;4981072;28;20180;-76
2021/10/19 01:14:15;;;;;;;7.00;5.73;;;8.60;99.90;;;;;;4981317;28;20192;-75
2021/10/19 01:16:40;;;;;;;8.53;6.60;;;8.70;99.90;;;;;;4980954;28;20207;-76
2021/10/19 01:19:06;;;;;;;8.80;5.97;;;8.90;99.90;;;;;;4980993;28;20216;-76
2021/10/19 01:21:31;;;;;;;9.60;6.30;;;8.90;99.90;;;;;;4981102;28;20243;-77
2021/10/19 01:23:57;;;;;;;7.47;5.50;;;8.80;99.90;;;;;;4980899;28;20198;-76
2021/10/19 01:26:23;;;;;;;7.50;6.17;;;8.80;99.90;;;;;;4981227;28;20234;-77
2021/10/19 01:28:49;;;;;;;8.57;6.70;;;8.80;99.90;;;;;;4981100;28;20190;-76
2021/10/19 01:31:14;;;;;;;9.60;6.17;;;8.90;99.90;;;;;;4979240;28;20199;-77
2021/10/19 01:33:40;;;;;;;9.03;6.73;;;8.90;99.90;;;;;;4980290;28;20234;-77
2021/10/19 01:36:07;;;;;;;9.93;6.93;;;8.90;99.90;;;;;;4981122;28;20204;-78
2021/10/19 01:38:34;;;;;;;10.53;6.93;;;8.90;99.90;;;;;;4981190;28;20311;-77
2021/10/19 01:41:01;;;;;;;10.73;7.43;;;9.10;99.90;;;;;;4980351;28;20184;-76
2021/10/19 01:43:28;;;;;;;8.67;6.77;;;9.20;99.90;;;;;;4980997;28;20238;-77
2021/10/19 01:45:57;;;;;;;10.20;6.83;;;9.20;99.90;;;;;;4980561;28;20219;-76
2021/10/19 01:48:23;;;;;;;9.87;7.17;;;9.20;99.90;;;;;;4980924;28;20297;-77
2021/10/19 01:50:49;;;;;;;9.97;7.30;;;9.20;99.90;;;;;;4980505;28;20188;-77
2021/10/19 01:53:16;;;;;;;10.10;7.77;;;9.20;99.90;;;;;;4980496;28;20215;-77
2021/10/19 01:55:42;;;;;;;10.13;7.50;;;9.30;99.90;;;;;;4980252;28;20211;-75
2021/10/19 01:58:09;;;;;;;11.23;7.60;;;9.30;99.90;;;;;;4982405;28;20604;-75
2021/10/19 02:00:36;;;;;;;10.87;7.73;;;9.30;99.90;;;;;;4982911;28;20184;-76
2021/10/19 02:03:09;;;;;;;10.47;7.50;;;9.30;99.90;;;;;;4979541;28;20263;-76
2021/10/19 02:05:35;;;;;;;10.83;7.97;;;9.30;99.90;;;;;;4980473;28;20654;-76
2021/10/19 02:08:03;;;;;;;12.00;7.50;;;9.30;99.90;;;;;;4983909;28;20258;-76
2021/10/19 02:10:29;;;;;;;11.17;7.33;;;9.30;99.90;;;;;;4984057;28;20192;-77
2021/10/19 02:12:55;;;;;;;10.57;7.40;;;9.30;99.90;;;;;;4998785;28;20705;-77
2021/10/19 02:15:24;;;;;;;9.87;7.10;;;9.30;99.90;;;;;;4983523;28;20196;-76
2021/10/19 02:17:50;;;;;;;9.97;7.37;;;9.30;99.90;;;;;;4983731;28;20208;-76
2021/10/19 02:20:16;;;;;;;10.27;7.20;;;9.30;99.90;;;;;;4983990;28;20275;-76
2021/10/19 02:22:41;;;;;;;10.93;8.20;;;9.30;99.90;;;;;;4983714;28;20192;-76
2021/10/19 02:25:07;;;;;;;11.90;8.17;;;9.30;99.90;;;;;;4982923;28;20286;-76
2021/10/19 02:27:33;;;;;;;9.43;7.00;;;9.30;99.90;;;;;;4983590;28;20689;-77
2021/10/19 02:29:58;;;;;;;12.57;8.97;;;9.40;99.90;;;;;;4983370;28;20196;-76
2021/10/19 02:32:24;;;;;;;10.47;8.40;;;9.50;99.90;;;;;;4983417;28;20567;-76
2021/10/19 02:34:50;;;;;;;10.60;7.80;;;9.50;99.90;;;;;;4983652;28;20184;-76
2021/10/19 02:37:15;;;;;;;11.20;8.13;;;9.50;99.90;;;;;;4983789;28;20218;-76
2021/10/19 02:39:41;;;;;;;9.63;7.70;;;9.50;99.90;;;;;;4983576;28;21075;-77
2021/10/19 02:42:07;;;;;;;9.87;7.07;;;9.60;99.90;;;;;;4984033;28;20199;-77
2021/10/19 02:44:32;;;;;;;9.60;7.37;;;9.60;99.90;;;;;;4983422;28;20681;-77
2021/10/19 02:46:58;;;;;;;10.93;7.40;;;9.60;99.90;;;;;;4983256;28;20609;-77
2021/10/19 02:49:23;;;;;;;11.00;7.93;;;9.60;99.90;;;;;;4982975;28;20203;-77
2021/10/19 02:51:49;;;;;;;12.00;8.23;;;9.60;99.90;;;;;;4983442;28;20196;-76
2021/10/19 02:54:14;;;;;;;12.50;8.23;;;9.60;99.90;;;;;;4998369;28;20293;-77
2021/10/19 02:56:40;;;;;;;11.37;8.13;;;9.70;99.90;;;;;;4983517;28;20287;-76
2021/10/19 02:59:06;;;;;;;10.43;7.90;;;9.80;99.90;;;;;;4983180;28;20278;-76
2021/10/19 03:01:32;;;;;;;10.60;7.37;;;9.80;99.90;;;;;;4983515;28;20179;-77
2021/10/19 03:03:58;;;;;;;12.07;7.93;;;9.90;99.90;;;;;;4982638;28;21577;-76
2021/10/19 03:06:23;;;;;;;10.47;8.13;;;9.80;99.90;;;;;;4983251;28;20220;-77
2021/10/19 03:08:49;;;;;;;11.00;8.47;;;9.80;99.90;;;;;;4981811;28;20674;-77
2021/10/19 03:11:15;;;;;;;13.00;8.13;;;9.90;99.90;;;;;;4983554;28;20192;-77
2021/10/19 03:13:40;;;;;;;10.43;7.57;;;10.00;99.90;;;;;;4983012;28;20243;-77
2021/10/19 03:16:06;;;;;;;11.35;8.00;;;10.00;99.90;;;;;;4982157;28;20216;-76
2021/10/19 03:18:31;;;;;;;9.33;7.77;;;10.00;99.90;;;;;;4981550;28;20212;-77
2021/10/19 03:20:58;;;;;;;11.75;8.77;;;10.00;99.90;;;;;;4982548;28;20211;-77
2021/10/19 03:23:24;;;;;;;11.77;8.33;;;10.00;99.90;;;;;;4982833;28;20202;-77
2021/10/19 03:25:49;;;;;;;11.83;8.07;;;10.00;99.90;;;;;;4982799;28;20682;-76
2021/10/19 03:28:15;;;;;;;12.00;8.07;;;10.00;99.90;;;;;;4982846;28;20295;-77
2021/10/19 03:30:41;;;;;;;12.17;8.43;;;10.00;99.90;;;;;;4982441;28;20279;-77
2021/10/19 03:33:06;;;;;;;10.52;8.10;;;10.10;99.90;;;;;;4981033;28;20203;-77
2021/10/19 03:35:32;;;;;;;11.13;8.63;;;10.20;99.90;;;;;;4982061;28;20214;-77
2021/10/19 03:37:58;;;;;;;10.57;8.30;;;10.10;99.90;;;;;;4980922;28;20214;-77
2021/10/19 03:40:23;;;;;;;12.10;8.60;;;10.30;99.90;;;;;;4980003;28;20274;-77
2021/10/19 03:42:49;;;;;;;10.97;8.17;;;10.20;99.90;;;;;;4979812;28;20176;-74
2021/10/19 03:45:16;;;;;;;11.93;8.00;;;10.40;99.90;;;;;;4980230;28;20199;-77
2021/10/19 03:47:42;;;;;;;12.27;8.57;;;10.30;99.90;;;;;;4978744;28;20181;-75
2021/10/19 03:50:09;;;;;;;10.70;8.20;;;10.20;99.90;;;;;;4979689;28;20191;-76
2021/10/19 03:52:35;;;;;;;11.15;7.75;;;10.20;99.90;;;;;;4980132;28;20191;-77
2021/10/19 03:55:01;;;;;;;10.50;8.27;;;10.20;99.90;;;;;;4979903;28;20893;-77
2021/10/19 03:57:27;;;;;;;11.65;8.60;;;10.10;99.90;;;;;;4979039;28;20262;-75
2021/10/19 03:59:52;;;;;;;12.03;8.80;;;10.10;99.90;;;;;;4978540;28;20217;-77
2021/10/19 04:02:18;;;;;;;13.70;8.43;;;10.10;99.90;;;;;;4980295;28;20207;-75
2021/10/19 04:04:43;;;;;;;10.55;8.32;;;10.10;99.90;;;;;;4980058;28;21381;-75
2021/10/19 04:07:11;;;;;;;11.37;8.20;;;10.10;99.90;;;;;;4979967;28;20674;-74
2021/10/19 04:09:37;;;;;;;11.30;8.43;;;10.20;99.90;;;;;;4978078;28;20188;-77
2021/10/19 04:12:02;;;;;;;11.60;8.30;;;10.20;99.90;;;;;;4979925;28;20223;-74
2021/10/19 04:14:28;;;;;;;11.20;8.35;;;10.20;99.90;;;;;;4980081;28;20706;-77
2021/10/19 04:16:53;;;;;;;12.20;8.70;;;10.20;99.90;;;;;;4978496;28;20255;-76
2021/10/19 04:19:19;;;;;;;9.05;7.40;;;10.20;99.90;;;;;;4980041;28;20200;-77
2021/10/19 04:21:48;;;;;;;10.80;7.65;;;10.10;99.90;;;;;;4979462;28;20181;-77
2021/10/19 04:24:17;;;;;;;10.05;8.00;;;10.10;99.90;;;;;;4978272;28;20185;-75
2021/10/19 04:26:43;;;;;;;10.50;8.00;;;10.10;99.90;;;;;;4977268;28;20224;-74
2021/10/19 04:29:10;;;;;;;11.27;8.03;;;10.10;99.90;;;;;;4979285;28;20191;-76
2021/10/19 04:31:37;;;;;;;11.07;8.47;;;10.00;99.90;;;;;;4979304;28;20284;-76
2021/10/19 04:34:04;;;;;;;10.60;7.78;;;10.00;99.90;;;;;;4978489;28;20184;-75
2021/10/19 04:36:30;;;;;;;13.27;8.97;;;10.00;99.90;;;;;;4978976;28;20231;-76
2021/10/19 04:38:56;;;;;;;11.55;8.40;;;10.00;99.90;;;;;;4980483;28;20306;-76
2021/10/19 04:41:21;;;;;;;11.50;8.97;;;10.00;99.90;;;;;;4979576;28;20184;-74
2021/10/19 04:43:47;;;;;;;13.15;9.15;;;10.00;99.90;;;;;;4979198;28;20678;-77
2021/10/19 04:46:13;;;;;;;12.40;8.70;;;10.00;99.90;;;;;;4979325;28;20282;-77
2021/10/19 04:48:38;;;;;;;14.95;9.32;;;10.00;99.90;;;;;;4979157;28;20193;-76
2021/10/19 04:51:04;;;;;;;12.30;8.60;;;10.00;99.90;;;;;;4979109;28;20286;-76
2021/10/19 04:53:31;;;;;;;14.40;9.37;;;10.00;99.90;;;;;;4978618;28;20780;-74
2021/10/19 04:55:57;;;;;;;13.82;9.18;;;10.00;99.90;;;;;;4979050;28;20207;-73
2021/10/19 04:58:23;;;;;;;10.32;8.25;;;10.00;99.90;;;;;;4979577;28;20203;-76
2021/10/19 05:00:49;;;;;;;14.57;9.33;;;9.90;99.90;;;;;;4978936;28;20191;-76
2021/10/19 05:03:16;;;;;;;21.53;9.37;;;10.00;99.90;;;;;;4978789;28;20230;-76
2021/10/19 05:05:42;;;;;;;22.93;10.37;;;10.00;99.90;;;;;;4979469;28;20639;-76
2021/10/19 05:08:08;;;;;;;14.98;9.63;;;10.10;99.90;;;;;;4978752;28;20181;-74
2021/10/19 05:10:33;;;;;;;20.60;9.30;;;10.00;99.90;;;;;;4978855;28;20176;-76
2021/10/19 05:12:59;;;;;;;13.00;8.73;;;10.00;99.90;;;;;;4978777;28;20195;-76
2021/10/19 05:15:26;;;;;;;12.40;9.03;;;10.00;99.90;;;;;;4979332;28;20188;-75
2021/10/19 05:17:52;;;;;;;18.40;8.97;;;9.90;99.90;;;;;;4977460;28;20267;-75
2021/10/19 05:20:18;;;;;;;12.90;8.95;;;9.90;99.90;;;;;;4978380;28;20214;-74
2021/10/19 05:22:43;;;;;;;12.93;8.60;;;9.90;99.90;;;;;;4978468;28;20246;-75
2021/10/19 05:25:10;;;;;;;16.53;9.50;;;9.90;99.90;;;;;;4977033;28;20181;-74
2021/10/19 05:27:35;;;;;;;14.60;9.17;;;9.90;99.90;;;;;;4977263;28;20662;-74
2021/10/19 05:30:02;;;;;;;14.60;9.90;;;9.80;99.90;;;;;;4978732;28;20192;-76
2021/10/19 05:32:28;;;;;;;16.23;9.37;;;9.80;99.90;;;;;;4979361;28;20238;-75
2021/10/19 05:34:53;;;;;;;17.00;10.63;;;9.80;99.90;;;;;;4978486;28;20234;-75
2021/10/19 05:37:19;;;;;;;17.37;11.10;;;9.80;99.90;;;;;;4978543;28;20203;-76
2021/10/19 05:39:45;;;;;;;15.90;10.02;;;9.80;99.90;;;;;;4978669;28;20213;-76
2021/10/19 05:42:12;;;;;;;17.50;11.57;;;9.80;99.90;;;;;;4980611;28;20188;-76
2021/10/19 05:44:38;;;;;;;21.53;12.10;;;9.90;99.90;;;;;;4981222;28;20213;-76
2021/10/19 05:47:04;;;;;;;24.73;13.10;;;9.90;99.90;;;;;;4982694;28;20279;-73
2021/10/19 05:49:30;;;;;;;26.48;15.20;;;9.90;99.90;;;;;;4981551;28;20183;-75
2021/10/19 05:51:55;;;;;;;27.77;16.27;;;9.80;99.90;;;;;;4982437;28;20187;-74
2021/10/19 05:54:22;;;;;;;29.27;15.97;;;9.80;99.90;;;;;;4981605;28;20532;-74
2021/10/19 05:56:48;;;;;;;25.40;14.57;;;9.90;99.90;;;;;;4981398;28;20204;-76
2021/10/19 05:59:14;;;;;;;22.33;13.73;;;9.90;99.90;;;;;;4982382;28;20212;-76
2021/10/19 06:01:39;;;;;;;25.20;14.07;;;9.90;99.90;;;;;;4982264;28;20254;-75
2021/10/19 06:04:05;;;;;;;27.50;13.53;;;9.90;99.90;;;;;;4981378;28;20180;-76
2021/10/19 06:06:30;;;;;;;22.05;13.55;;;9.90;99.90;;;;;;4982648;28;20199;-75
2021/10/19 06:08:56;;;;;;;20.77;12.70;;;9.90;99.90;;;;;;4982796;28;20211;-74
2021/10/19 06:11:22;;;;;;;22.27;12.57;;;10.00;99.90;;;;;;4972876;28;20188;-73
2021/10/19 06:13:47;;;;;;;19.57;12.53;;;10.10;99.90;;;;;;4980944;28;20192;-76
2021/10/19 06:16:13;;;;;;;18.23;11.10;;;10.10;99.90;;;;;;4981077;28;20290;-74
2021/10/19 06:18:39;;;;;;;15.05;10.02;;;10.10;99.90;;;;;;4980762;28;20212;-76
2021/10/19 06:21:04;;;;;;;17.17;10.90;;;10.00;99.90;;;;;;4996547;28;20184;-74
2021/10/19 06:23:30;;;;;;;17.08;11.77;;;10.00;99.90;;;;;;4981047;28;20521;-76
2021/10/19 06:25:56;;;;;;;13.57;10.32;;;10.00;99.90;;;;;;4980690;28;20263;-76
2021/10/19 06:28:22;;;;;;;16.13;10.75;;;10.10;99.90;;;;;;4980588;28;20176;-76
2021/10/19 06:30:47;;;;;;;14.30;10.33;;;10.00;99.90;;;;;;4979328;28;20188;-74
2021/10/19 06:33:13;;;;;;;13.77;9.60;;;10.00;99.90;;;;;;4980346;28;20188;-74
2021/10/19 06:35:41;;;;;;;13.63;10.00;;;10.00;99.90;;;;;;4980340;28;20682;-77
2021/10/19 06:38:08;;;;;;;12.80;9.70;;;10.00;99.90;;;;;;4979029;28;20385;-73
2021/10/19 06:40:33;;;;;;;14.75;9.57;;;10.10;99.90;;;;;;4980706;28;20655;-77
2021/10/19 06:42:59;;;;;;;14.13;10.23;;;10.10;99.90;;;;;;4980693;28;20343;-77
2021/10/19 06:45:25;;;;;;;13.57;9.40;;;10.10;99.90;;;;;;4980484;28;20752;-76
2021/10/19 06:47:51;;;;;;;14.07;10.13;;;10.20;99.90;;;;;;4982445;28;20542;-73
2021/10/19 06:50:16;;;;;;;15.68;10.18;;;10.30;99.90;;;;;;4982143;28;20646;-73
2021/10/19 06:52:42;;;;;;;13.40;9.43;;;10.40;99.90;;;;;;4982298;28;20291;-77
2021/10/19 06:55:08;;;;;;;14.02;10.00;;;10.40;99.90;;;;;;4982185;28;20203;-77
2021/10/19 06:57:41;;;;;;;12.95;9.88;;;10.50;99.90;;;;;;4981345;28;20211;-73
2021/10/19 07:00:09;;;;;;;13.15;9.85;;;10.60;99.90;;;;;;4983057;28;20659;-79
2021/10/19 07:02:34;;;;;;;16.27;9.75;;;10.70;99.90;;;;;;4983191;28;20188;-76
2021/10/19 07:05:00;;;;;;;13.52;9.10;;;10.80;99.90;;;;;;4984321;28;20195;-78
2021/10/19 07:07:26;;;;;;;15.68;9.70;;;10.80;99.90;;;;;;4981550;28;20516;-78
2021/10/19 07:09:51;;;;;;;12.20;8.82;;;10.70;99.90;;;;;;4978131;28;20247;-78
2021/10/19 07:12:17;;;;;;;14.25;9.77;;;10.70;99.90;;;;;;4980128;28;20603;-78
2021/10/19 07:14:43;;;;;;;13.55;9.68;;;10.70;99.90;;;;;;4986195;28;20279;-77
2021/10/19 07:17:09;;;;;;;16.67;10.70;;;10.60;99.90;;;;;;4985525;28;20248;-76
2021/10/19 07:19:37;;;;;;;14.75;10.35;;;10.60;99.90;;;;;;4986499;28;20220;-77
2021/10/19 07:22:03;;;;;;;13.82;9.35;;;10.70;99.90;;;;;;4984344;28;20181;-77
2021/10/19 07:24:29;;;;;;;13.05;9.68;;;10.80;99.90;;;;;;4981453;28;20226;-78
2021/10/19 07:26:54;;;;;;;14.18;9.77;;;10.90;99.90;;;;;;4980571;28;20299;-78
2021/10/19 07:29:20;;;;;;;12.77;9.43;;;11.00;99.90;;;;;;4981475;28;20733;-78
2021/10/19 07:31:46;;;;;;;13.20;9.38;;;11.10;99.90;;;;;;4981013;28;20199;-78
2021/10/19 07:34:11;;;;;;;12.05;8.32;;;11.30;99.90;;;;;;4981579;28;20223;-77
2021/10/19 07:36:37;;;;;;;12.50;9.27;;;11.50;99.90;;;;;;4979471;28;20216;-78
2021/10/19 07:39:03;;;;;;;15.75;10.35;;;11.80;99.90;;;;;;4981737;28;20208;-78
2021/10/19 07:41:29;;;;;;;14.07;9.55;;;12.00;99.90;;;;;;4981255;28;20602;-77
2021/10/19 07:43:54;;;;;;;11.88;9.00;;;12.10;99.90;;;;;;4982145;28;20191;-78
2021/10/19 07:46:20;;;;;;;13.13;9.27;;;12.30;99.90;;;;;;4981675;28;20985;-78
2021/10/19 07:48:45;;;;;;;16.13;9.25;;;12.50;99.90;;;;;;4996681;28;20514;-78
2021/10/19 07:51:11;;;;;;;12.95;8.45;;;12.70;99.90;;;;;;4981412;28;21281;-78
2021/10/19 07:53:36;;;;;;;12.63;8.90;;;12.80;99.90;;;;;;4979557;28;20278;-78
2021/10/19 07:56:02;;;;;;;13.38;8.50;;;12.80;99.90;;;;;;4981313;28;20203;-78
2021/10/19 07:58:28;;;;;;;12.82;8.70;;;12.90;99.90;;;;;;4982321;28;21259;-78
2021/10/19 08:00:54;;;;;;;11.55;8.45;;;13.00;99.90;;;;;;4976103;28;20307;-77
2021/10/19 08:03:20;;;;;;;11.65;8.80;;;13.20;99.90;;;;;;4977799;28;20189;-78
2021/10/19 08:05:46;;;;;;;13.07;8.98;;;13.30;99.90;;;;;;4979613;28;20226;-78
2021/10/19 08:08:15;;;;;;;13.45;8.55;;;13.50;99.90;;;;;;4980178;28;20191;-78
2021/10/19 08:10:43;;;;;;;11.10;7.55;;;13.60;99.90;;;;;;4980637;28;20798;-77
2021/10/19 08:13:09;;;;;;;11.90;7.70;;;13.70;99.90;;;;;;4979697;28;20184;-78
2021/10/19 08:15:36;;;;;;;9.80;7.88;;;13.80;99.90;;;;;;4981191;28;20837;-78
2021/10/19 08:18:03;;;;;;;9.02;7.47;;;13.90;99.90;;;;;;4979808;28;20223;-78
2021/10/19 08:20:28;;;;;;;8.90;6.97;;;14.10;99.90;;;;;;4980778;28;21611;-78
2021/10/19 08:22:54;;;;;;;8.20;7.32;;;14.20;99.90;;;;;;4980293;28;20208;-78
2021/10/19 08:25:20;;;;;;;9.55;7.45;;;14.30;99.90;;;;;;4977706;28;20259;-77
2021/10/19 08:27:46;;;;;;;11.15;7.38;;;14.30;99.90;;;;;;4980875;28;20238;-78
2021/10/19 08:30:16;;;;;;;9.73;7.20;;;14.40;99.90;;;;;;4983795;28;20853;-78
2021/10/19 08:32:42;;;;;;;9.27;7.43;;;14.40;99.90;;;;;;4982123;28;20192;-76
2021/10/19 08:35:09;;;;;;;9.10;7.00;;;14.40;99.90;;;;;;4981592;28;20180;-75
2021/10/19 08:37:35;;;;;;;9.27;7.00;;;14.50;99.90;;;;;;4980508;28;20239;-78
2021/10/19 08:40:02;;;;;;;8.45;7.22;;;14.50;99.90;;;;;;4984268;28;20670;-77
2021/10/19 08:42:28;;;;;;;8.05;6.82;;;14.70;99.90;;;;;;4979342;28;20196;-77
2021/10/19 08:44:53;;;;;;;8.90;7.53;;;14.90;99.90;;;;;;4979461;28;20189;-77
2021/10/19 08:47:20;;;;;;;7.90;6.70;;;14.90;99.90;;;;;;4980969;28;20199;-78
2021/10/19 08:49:45;;;;;;;8.18;6.38;;;14.90;99.90;;;;;;4980378;28;20227;-77
2021/10/19 08:52:11;;;;;;;9.27;6.60;;;15.00;99.90;;;;;;4980180;28;20223;-76
2021/10/19 08:54:37;;;;;;;7.53;6.72;;;15.10;99.90;;;;;;4980241;28;20275;-77
2021/10/19 08:57:10;;;;;;;8.27;6.43;;;15.00;99.90;;;;;;4979932;28;20256;-78
2021/10/19 08:59:42;;;;;;;8.05;6.78;;;15.10;99.90;;;;;;4980055;28;20250;-77
2021/10/19 09:02:07;;;;;;;8.90;6.88;;;15.10;99.90;;;;;;4994619;28;20413;-77
2021/10/19 09:04:33;;;;;;;9.07;7.15;;;15.10;99.90;;;;;;4979677;28;20244;-78
2021/10/19 09:06:59;;;;;;;8.65;6.95;;;15.10;99.90;;;;;;4978510;28;20215;-78
2021/10/19 09:09:26;;;;;;;7.40;6.10;;;15.10;99.90;;;;;;4979407;28;20267;-76
2021/10/19 09:11:53;;;;;;;8.82;6.30;;;15.10;99.90;;;;;;4976606;28;20189;-77
2021/10/19 09:14:20;;;;;;;8.75;6.18;;;15.20;99.90;;;;;;4976885;28;20188;-79
2021/10/19 09:16:48;;;;;;;7.95;6.35;;;15.30;99.90;;;;;;4979533;28;20211;-79
2021/10/19 09:19:17;;;;;;;14.88;6.25;;;15.40;99.90;;;;;;4979557;28;20687;-82
2021/10/19 09:22:15;;;;;;;8.07;6.03;;;15.60;99.90;;;;;;4978278;28;20603;-75
2021/10/19 09:24:43;;;;;;;7.70;5.72;;;15.70;99.90;;;;;;4986034;28;20955;-78
2021/10/19 09:27:15;;;;;;;6.82;5.63;;;15.80;99.90;;;;;;4977388;28;20587;-77
2021/10/19 09:29:47;;;;;;;9.02;5.82;;;15.90;99.90;;;;;;4977566;28;20279;-77
2021/10/19 09:32:14;;;;;;;6.07;4.93;;;16.10;99.90;;;;;;4975554;28;20554;-76
2021/10/19 09:34:44;;;;;;;6.10;4.97;;;16.20;99.90;;;;;;4979862;28;20180;-75
2021/10/19 09:37:16;;;;;;;5.10;4.38;;;16.30;99.90;;;;;;4979676;28;20204;-76
2021/10/19 09:39:44;;;;;;;4.85;3.95;;;16.50;99.90;;;;;;4981465;28;20240;-77
2021/10/19 09:42:22;;;;;;;4.15;3.55;;;16.60;99.90;;;;;;4980947;28;20271;-74
2021/10/19 09:44:57;;;;;;;4.97;3.67;;;16.60;99.90;;;;;;4978852;28;20733;-76
2021/10/19 09:47:27;;;;;;;3.90;3.03;;;16.60;99.90;;;;;;4978155;28;20266;-79
2021/10/19 09:49:56;;;;;;;3.38;2.85;;;16.70;99.90;;;;;;4978281;28;20500;-77
2021/10/19 09:52:23;;;;;;;3.33;3.00;;;16.80;99.90;;;;;;4978273;28;20543;-78
2021/10/19 09:54:53;;;;;;;3.88;3.17;;;16.50;99.90;;;;;;4978790;28;20196;-76
2021/10/19 09:57:20;;;;;;;4.07;3.10;;;16.20;99.90;;;;;;4978294;28;20211;-78
2021/10/19 09:59:46;;;;;;;4.47;3.80;;;16.10;99.90;;;;;;4977872;28;20478;-77
2021/10/19 10:02:15;;;;;;;3.50;3.20;;;16.00;99.90;;;;;;4977296;28;20184;-76
2021/10/19 10:04:44;;;;;;;2.95;2.65;;;15.90;99.90;;;;;;4978325;28;20299;-75
2021/10/19 10:07:13;;;;;;;3.25;2.40;;;15.90;99.90;;;;;;4978194;28;20219;-76
2021/10/19 10:09:41;;;;;;;2.83;2.45;;;15.80;99.90;;;;;;4979051;28;20191;-75
2021/10/19 10:12:08;;;;;;;2.97;2.75;;;15.70;99.90;;;;;;4979005;28;20181;-75
2021/10/19 10:14:41;;;;;;;2.42;2.22;;;15.60;99.90;;;;;;4977166;28;20188;-76
2021/10/19 10:17:10;;;;;;;3.75;2.25;;;15.50;99.90;;;;;;4978967;28;20204;-76
2021/10/19 10:19:35;;;;;;;3.00;2.25;;;15.50;99.90;;;;;;4977414;28;20674;-77
2021/10/19 10:22:14;;;;;;;2.35;2.15;;;15.70;99.90;;;;;;4977393;28;20188;-76
2021/10/19 10:24:41;;;;;;;2.28;2.08;;;15.70;99.90;;;;;;4978097;28;20210;-77
2021/10/19 10:27:12;;;;;;;2.20;2.00;;;15.90;99.90;;;;;;4971554;28;20208;-75
2021/10/19 10:29:47;;;;;;;3.22;2.70;;;16.10;99.90;;;;;;4973092;28;20193;-77
2021/10/19 10:32:27;;;;;;;2.33;2.03;;;16.30;99.90;;;;;;4978984;28;20184;-76
2021/10/19 10:35:15;;;;;;;2.63;1.98;;;16.50;99.90;;;;;;4982868;28;20258;-75
2021/10/19 10:37:54;;;;;;;2.85;2.00;;;16.50;99.90;;;;;;4980839;28;20219;-75
2021/10/19 10:40:38;;;;;;;2.30;2.10;;;16.60;99.90;;;;;;4981806;28;20221;-75
2021/10/19 10:43:22;;;;;;;3.72;2.20;;;16.70;99.90;;;;;;4980493;28;20176;-76
2021/10/19 10:46:20;;;;;;;2.65;2.28;;;16.80;99.90;;;;;;4981903;28;20226;-78
2021/10/19 10:48:47;;;;;;;3.65;2.03;;;16.70;99.90;;;;;;4982040;28;20554;-78
2021/10/19 10:51:14;;;;;;;2.97;2.05;;;16.80;99.90;;;;;;4982080;28;20198;-75
2021/10/19 10:53:42;;;;;;;2.10;1.90;;;16.80;99.90;;;;;;4981928;28;20219;-76
2021/10/19 10:56:09;;;;;;;1.75;1.65;;;17.00;99.90;;;;;;4979868;28;20567;-78
2021/10/19 10:58:37;;;;;;;2.97;2.20;;;16.90;99.90;;;;;;4980497;28;20472;-75
2021/10/19 11:01:27;;;;;;;2.33;1.70;;;16.80;99.90;;;;;;4981589;28;20453;-77
2021/10/19 11:04:08;;;;;;;2.20;2.00;;;16.60;99.90;;;;;;4981910;28;20180;-78
2021/10/19 11:06:36;;;;;;;2.33;2.13;;;16.50;99.90;;;;;;4981289;28;20227;-76
2021/10/19 11:09:13;;;;;;;2.30;2.10;;;16.20;99.90;;;;;;4980235;28;20180;-76
2021/10/19 11:11:40;;;;;;;2.33;2.10;;;16.10;99.90;;;;;;4979440;28;20671;-75
2021/10/19 11:14:11;;;;;;;2.83;2.17;;;15.90;99.90;;;;;;4979834;28;20188;-77
2021/10/19 11:16:42;;;;;;;2.80;2.40;;;15.80;99.90;;;;;;4980196;28;20930;-79
2021/10/19 11:19:21;;;;;;;3.13;2.40;;;15.80;99.90;;;;;;4979772;28;20271;-76
2021/10/19 11:21:53;;;;;;;2.55;2.30;;;15.80;99.90;;;;;;4980341;28;20990;-75
2021/10/19 11:24:20;;;;;;;2.33;2.00;;;15.70;99.90;;;;;;4981030;28;20545;-75
2021/10/19 11:26:47;;;;;;;2.35;2.13;;;15.70;99.90;;;;;;4979067;28;20965;-78
2021/10/19 11:29:13;;;;;;;2.58;2.38;;;15.80;99.90;;;;;;4981132;28;20211;-77
2021/10/19 11:31:39;;;;;;;2.90;2.53;;;15.80;99.90;;;;;;4980258;28;20275;-75
2021/10/19 11:34:06;;;;;;;2.95;2.50;;;15.90;99.90;;;;;;4980080;28;20298;-76
2021/10/19 11:36:32;;;;;;;2.55;2.35;;;15.90;99.90;;;;;;4985415;28;20212;-78
2021/10/19 11:39:01;;;;;;;2.95;2.60;;;16.00;99.90;;;;;;4983521;28;20303;-78
2021/10/19 11:41:29;;;;;;;2.75;2.55;;;16.00;99.90;;;;;;4981419;28;20241;-78
2021/10/19 11:43:57;;;;;;;2.65;2.35;;;16.00;99.90;;;;;;4981502;28;20665;-78
2021/10/19 11:46:25;;;;;;;2.97;2.10;;;16.00;99.90;;;;;;4974013;28;20310;-78
2021/10/19 11:48:52;;;;;;;2.95;2.50;;;16.10;99.90;;;;;;4980860;28;20651;-76
2021/10/19 11:51:23;;;;;;;2.28;2.08;;;16.20;99.90;;;;;;4981127;28;20203;-77
2021/10/19 11:53:49;;;;;;;2.35;2.15;;;16.10;99.90;;;;;;4981666;28;20188;-76
2021/10/19 11:56:16;;;;;;;2.35;1.92;;;15.80;99.90;;;;;;4982385;28;20232;-77
2021/10/19 11:58:58;;;;;;;2.25;1.80;;;15.70;99.90;;;;;;4980557;28;20562;-76
2021/10/19 12:01:25;;;;;;;2.10;1.90;;;15.70;99.90;;;;;;4982400;28;20207;-80
2021/10/19 12:04:02;;;;;;;2.33;2.13;;;15.60;99.90;;;;;;4979118;28;20259;-77
2021/10/19 12:06:30;;;;;;;3.28;2.25;;;15.60;99.90;;;;;;4981015;28;20223;-76
2021/10/19 12:09:08;;;;;;;2.05;1.80;;;15.70;99.90;;;;;;4980000;28;20188;-76
2021/10/19 12:11:34;;;;;;;2.28;1.90;;;15.70;99.90;;;;;;4980236;28;20204;-78
2021/10/19 12:14:02;;;;;;;2.63;2.08;;;15.70;99.90;;;;;;4980024;28;20186;-76
2021/10/19 12:16:30;;;;;;;2.17;1.98;;;15.60;99.90;;;;;;4978178;28;20215;-77
2021/10/19 12:18:58;;;;;;;2.40;2.03;;;15.70;99.90;;;;;;4980295;28;20232;-78
2021/10/19 12:21:26;;;;;;;2.30;2.10;;;15.80;99.90;;;;;;4980621;28;20207;-77
2021/10/19 12:23:56;;;;;;;1.80;1.70;;;15.70;99.90;;;;;;4980010;28;20188;-77
2021/10/19 12:26:24;;;;;;;2.17;1.98;;;15.70;99.90;;;;;;4980243;28;20258;-78
2021/10/19 12:28:51;;;;;;;2.25;2.05;;;15.70;99.90;;;;;;4978104;28;20585;-78
2021/10/19 12:31:19;;;;;;;2.33;2.13;;;15.70;99.90;;;;;;4979222;28;20192;-77
2021/10/19 12:33:51;;;;;;;2.38;2.00;;;15.60;99.90;;;;;;4979879;28;20260;-77
2021/10/19 12:36:18;;;;;;;2.45;1.83;;;15.60;99.90;;;;;;4994518;28;20228;-77
2021/10/19 12:38:45;;;;;;;2.30;2.00;;;15.50;99.90;;;;;;4979750;28;20208;-76
2021/10/19 12:41:18;;;;;;;3.15;1.98;;;15.40;99.90;;;;;;4979671;28;20614;-77
2021/10/19 12:43:47;;;;;;;1.77;1.65;;;15.40;99.90;;;;;;4977977;28;20268;-79